Terminal Aerodrome Forecast
Issued by NWS

Home | Current Version | Previous Version | Text Only | Print | Product List | Glossary On
Versions: 1 2 3 4 5 6 7 8 9 10 11 12 13 14 15 16 17 18 19 20 21 22 23
000
FTUS43 KGRR 011800 AAA
TAFJXN
TAF AMD
KJXN 011823Z 0118/0218 18014G23KT P6SM BKN025 OVC050
      TEMPO 0119/0121 3SM -TSRA BR OVC015CB
     FM012100 24012G18KT 6SM HZ VCSH BKN025
     FM020700 28005KT P6SM BKN050=

USA.gov is the U.S. government's official web portal to all federal, state and local government web resources and services.